Archival Weather

Norman Y Mineta San Jose Intl

San Jose, California (KSJC)

Report from: Tuesday, February 20, 2024 3:53 AM PST
Current time: Monday, June 24, 2024 4:17 AM PDT

Current weather – Weather history – Daily summaries
Weather forecast

Temperature13.9°C (57.0°F)
Dew point9.4°C (48.9°F)
Winds 8 kts (4.1 m/s, 9.2 mph) Southeast (140°)
Visibility10 mi. (16.1 km)
Clouds Ceiling: Broken clouds 4,000 ft. (1,219 m)
Overcast 4,900 ft. (1,494 m)
Altimeter30.01 in.Hg (1016 mB)
PrecipitiationTrace
Precip. events Rain ended 10:57 AM
Rain began 11:38 AM
Rain ended 11:48 AM
Precip last 3 hours0.01 in. (0 mm)
Precip last 24 hours0.02 in. (1 mm)
Relative humidity74 %
Density altitude-63 ft. (-19 m)
Sea-level pressure101.6 kPa (1016 mB, 30.01 in.Hg)
Max temp last 6 hours15.6°C (60.1°F)
Min temp last 6 hours13.3°C (55.9°F)
Remarks Fully automated report
Automated weather observing station with precipitation discriminator
Pressure rising, then falling
Flight conditions Visual Meteorological Conditions
Raw dataKSJC 201153Z AUTO 14008KT 10SM BKN040 OVC049 14/09 A3001 RMK AO2 RAE1057B38E48 SLP162 P0000 60001 70002 T01390094 10156 20133 50000
An error has occurred. This application may no longer respond until reloaded. Reload 🗙